sensor_id;sensor_type;location;lat;lon;timestamp;P1;durP1;ratioP1;P2;durP2;ratioP2
20627;SDS011;10473;42.734;24.258;2023-04-23T00:00:12;4.30;;;3.43;;
20627;SDS011;10473;42.734;24.258;2023-04-23T00:02:41;4.43;;;3.73;;
20627;SDS011;10473;42.734;24.258;2023-04-23T00:05:11;7.20;;;3.23;;
20627;SDS011;10473;42.734;24.258;2023-04-23T00:07:42;3.47;;;2.80;;
20627;SDS011;10473;42.734;24.258;2023-04-23T00:10:11;3.80;;;3.10;;
20627;SDS011;10473;42.734;24.258;2023-04-23T00:12:40;2.80;;;2.60;;
20627;SDS011;10473;42.734;24.258;2023-04-23T00:15:09;3.30;;;2.47;;
20627;SDS011;10473;42.734;24.258;2023-04-23T00:17:38;2.80;;;1.90;;
20627;SDS011;10473;42.734;24.258;2023-04-23T00:20:06;5.30;;;2.67;;
20627;SDS011;10473;42.734;24.258;2023-04-23T00:22:35;3.43;;;2.70;;
20627;SDS011;10473;42.734;24.258;2023-04-23T00:25:04;3.23;;;2.83;;
20627;SDS011;10473;42.734;24.258;2023-04-23T00:27:32;2.43;;;2.13;;
20627;SDS011;10473;42.734;24.258;2023-04-23T00:30:00;2.83;;;2.57;;
20627;SDS011;10473;42.734;24.258;2023-04-23T00:32:30;3.37;;;2.63;;
20627;SDS011;10473;42.734;24.258;2023-04-23T00:34:57;2.53;;;2.30;;
20627;SDS011;10473;42.734;24.258;2023-04-23T00:37:25;4.07;;;2.10;;
20627;SDS011;10473;42.734;24.258;2023-04-23T00:39:53;4.93;;;1.97;;
20627;SDS011;10473;42.734;24.258;2023-04-23T00:42:22;3.37;;;2.77;;
20627;SDS011;10473;42.734;24.258;2023-04-23T00:44:52;5.27;;;2.67;;
20627;SDS011;10473;42.734;24.258;2023-04-23T00:47:20;3.37;;;2.57;;
20627;SDS011;10473;42.734;24.258;2023-04-23T00:49:48;3.70;;;3.00;;
20627;SDS011;10473;42.734;24.258;2023-04-23T00:52:18;3.00;;;2.40;;
20627;SDS011;10473;42.734;24.258;2023-04-23T00:54:46;2.40;;;2.10;;
20627;SDS011;10473;42.734;24.258;2023-04-23T00:57:13;2.50;;;2.27;;
20627;SDS011;10473;42.734;24.258;2023-04-23T00:59:43;4.50;;;2.13;;
20627;SDS011;10473;42.734;24.258;2023-04-23T01:02:12;7.00;;;1.90;;
20627;SDS011;10473;42.734;24.258;2023-04-23T01:04:41;2.67;;;2.10;;
20627;SDS011;10473;42.734;24.258;2023-04-23T01:07:10;5.87;;;2.40;;
20627;SDS011;10473;42.734;24.258;2023-04-23T01:09:38;3.53;;;2.27;;
20627;SDS011;10473;42.734;24.258;2023-04-23T01:12:07;9.87;;;2.43;;
20627;SDS011;10473;42.734;24.258;2023-04-23T01:14:37;2.47;;;2.27;;
20627;SDS011;10473;42.734;24.258;2023-04-23T01:17:06;2.73;;;2.37;;
20627;SDS011;10473;42.734;24.258;2023-04-23T01:19:34;2.67;;;2.20;;
20627;SDS011;10473;42.734;24.258;2023-04-23T01:22:07;2.73;;;1.93;;
20627;SDS011;10473;42.734;24.258;2023-04-23T01:24:36;1.73;;;1.60;;
20627;SDS011;10473;42.734;24.258;2023-04-23T01:27:04;2.37;;;1.93;;
20627;SDS011;10473;42.734;24.258;2023-04-23T01:29:32;2.03;;;1.90;;
20627;SDS011;10473;42.734;24.258;2023-04-23T01:32:01;4.53;;;2.40;;
20627;SDS011;10473;42.734;24.258;2023-04-23T01:34:29;2.37;;;1.53;;
20627;SDS011;10473;42.734;24.258;2023-04-23T01:36:57;2.57;;;1.87;;
20627;SDS011;10473;42.734;24.258;2023-04-23T01:39:27;6.30;;;2.23;;
20627;SDS011;10473;42.734;24.258;2023-04-23T01:41:54;2.67;;;1.93;;
20627;SDS011;10473;42.734;24.258;2023-04-23T01:44:24;2.27;;;2.07;;
20627;SDS011;10473;42.734;24.258;2023-04-23T01:46:51;2.97;;;2.43;;
20627;SDS011;10473;42.734;24.258;2023-04-23T01:49:19;2.53;;;1.83;;
20627;SDS011;10473;42.734;24.258;2023-04-23T01:51:47;2.13;;;1.93;;
20627;SDS011;10473;42.734;24.258;2023-04-23T01:54:15;2.20;;;1.70;;
20627;SDS011;10473;42.734;24.258;2023-04-23T01:56:44;3.13;;;2.20;;
20627;SDS011;10473;42.734;24.258;2023-04-23T01:59:12;4.90;;;2.83;;
20627;SDS011;10473;42.734;24.258;2023-04-23T02:01:40;3.10;;;2.40;;
20627;SDS011;10473;42.734;24.258;2023-04-23T02:04:09;5.60;;;3.13;;
20627;SDS011;10473;42.734;24.258;2023-04-23T02:06:38;3.30;;;3.00;;
20627;SDS011;10473;42.734;24.258;2023-04-23T02:09:07;4.67;;;2.43;;
20627;SDS011;10473;42.734;24.258;2023-04-23T02:11:34;4.57;;;2.60;;
20627;SDS011;10473;42.734;24.258;2023-04-23T02:14:04;3.27;;;2.43;;
20627;SDS011;10473;42.734;24.258;2023-04-23T02:16:32;3.33;;;2.47;;
20627;SDS011;10473;42.734;24.258;2023-04-23T02:19:01;2.33;;;2.13;;
20627;SDS011;10473;42.734;24.258;2023-04-23T02:21:28;2.63;;;2.43;;
20627;SDS011;10473;42.734;24.258;2023-04-23T02:23:56;4.03;;;2.10;;
20627;SDS011;10473;42.734;24.258;2023-04-23T02:26:24;4.77;;;3.63;;
20627;SDS011;10473;42.734;24.258;2023-04-23T02:28:52;2.60;;;2.10;;
20627;SDS011;10473;42.734;24.258;2023-04-23T02:31:21;3.07;;;2.53;;
20627;SDS011;10473;42.734;24.258;2023-04-23T02:33:49;3.40;;;2.00;;
20627;SDS011;10473;42.734;24.258;2023-04-23T02:36:16;2.17;;;1.97;;
20627;SDS011;10473;42.734;24.258;2023-04-23T02:38:44;3.70;;;2.40;;
20627;SDS011;10473;42.734;24.258;2023-04-23T02:41:14;1.67;;;1.57;;
20627;SDS011;10473;42.734;24.258;2023-04-23T02:43:41;5.03;;;2.63;;
20627;SDS011;10473;42.734;24.258;2023-04-23T02:46:09;2.23;;;2.03;;
20627;SDS011;10473;42.734;24.258;2023-04-23T02:48:39;8.13;;;2.37;;
20627;SDS011;10473;42.734;24.258;2023-04-23T02:51:09;4.93;;;3.07;;
20627;SDS011;10473;42.734;24.258;2023-04-23T02:53:37;4.60;;;2.90;;
20627;SDS011;10473;42.734;24.258;2023-04-23T02:56:05;2.40;;;2.20;;
20627;SDS011;10473;42.734;24.258;2023-04-23T02:58:33;3.87;;;2.97;;
20627;SDS011;10473;42.734;24.258;2023-04-23T03:01:03;7.00;;;3.03;;
20627;SDS011;10473;42.734;24.258;2023-04-23T03:03:31;3.37;;;2.93;;
20627;SDS011;10473;42.734;24.258;2023-04-23T03:06:03;3.17;;;2.67;;
20627;SDS011;10473;42.734;24.258;2023-04-23T03:08:32;3.80;;;2.57;;
20627;SDS011;10473;42.734;24.258;2023-04-23T03:11:00;2.40;;;1.97;;
20627;SDS011;10473;42.734;24.258;2023-04-23T03:13:28;5.80;;;2.63;;
20627;SDS011;10473;42.734;24.258;2023-04-23T03:15:56;3.53;;;2.77;;
20627;SDS011;10473;42.734;24.258;2023-04-23T03:18:25;2.73;;;2.40;;
20627;SDS011;10473;42.734;24.258;2023-04-23T03:20:54;3.10;;;2.80;;
20627;SDS011;10473;42.734;24.258;2023-04-23T03:23:23;3.30;;;2.33;;
20627;SDS011;10473;42.734;24.258;2023-04-23T03:25:50;3.33;;;2.57;;
20627;SDS011;10473;42.734;24.258;2023-04-23T03:28:18;2.73;;;2.40;;
20627;SDS011;10473;42.734;24.258;2023-04-23T03:30:46;6.47;;;2.83;;
20627;SDS011;10473;42.734;24.258;2023-04-23T03:33:14;5.73;;;2.23;;
20627;SDS011;10473;42.734;24.258;2023-04-23T03:35:42;3.50;;;2.67;;
20627;SDS011;10473;42.734;24.258;2023-04-23T03:38:14;2.77;;;2.57;;
20627;SDS011;10473;42.734;24.258;2023-04-23T03:40:43;2.53;;;2.10;;
20627;SDS011;10473;42.734;24.258;2023-04-23T03:43:11;2.53;;;1.90;;
20627;SDS011;10473;42.734;24.258;2023-04-23T03:45:58;1.77;;;1.57;;
20627;SDS011;10473;42.734;24.258;2023-04-23T03:48:28;2.37;;;1.70;;
20627;SDS011;10473;42.734;24.258;2023-04-23T03:50:58;2.23;;;2.03;;
20627;SDS011;10473;42.734;24.258;2023-04-23T03:53:43;2.40;;;2.20;;
20627;SDS011;10473;42.734;24.258;2023-04-23T03:56:35;7.83;;;2.83;;
20627;SDS011;10473;42.734;24.258;2023-04-23T03:59:13;2.10;;;1.90;;
20627;SDS011;10473;42.734;24.258;2023-04-23T04:01:43;2.57;;;2.37;;
20627;SDS011;10473;42.734;24.258;2023-04-23T04:04:10;6.13;;;2.60;;
20627;SDS011;10473;42.734;24.258;2023-04-23T04:06:38;2.77;;;2.10;;
20627;SDS011;10473;42.734;24.258;2023-04-23T04:09:06;3.83;;;2.77;;
20627;SDS011;10473;42.734;24.258;2023-04-23T04:11:35;2.23;;;1.93;;
20627;SDS011;10473;42.734;24.258;2023-04-23T04:14:03;4.00;;;2.90;;
20627;SDS011;10473;42.734;24.258;2023-04-23T04:16:31;3.50;;;2.63;;
20627;SDS011;10473;42.734;24.258;2023-04-23T04:18:58;12.10;;;3.27;;
20627;SDS011;10473;42.734;24.258;2023-04-23T04:21:26;13.17;;;3.50;;
20627;SDS011;10473;42.734;24.258;2023-04-23T04:23:54;5.53;;;3.93;;
20627;SDS011;10473;42.734;24.258;2023-04-23T04:26:22;3.70;;;2.70;;
20627;SDS011;10473;42.734;24.258;2023-04-23T04:28:51;5.43;;;3.33;;
20627;SDS011;10473;42.734;24.258;2023-04-23T04:31:19;4.73;;;3.50;;
20627;SDS011;10473;42.734;24.258;2023-04-23T04:33:47;6.47;;;4.77;;
20627;SDS011;10473;42.734;24.258;2023-04-23T04:36:16;6.03;;;5.00;;
20627;SDS011;10473;42.734;24.258;2023-04-23T04:38:44;13.70;;;9.23;;
20627;SDS011;10473;42.734;24.258;2023-04-23T04:41:15;15.60;;;8.60;;
20627;SDS011;10473;42.734;24.258;2023-04-23T04:43:44;8.60;;;6.67;;
20627;SDS011;10473;42.734;24.258;2023-04-23T04:46:16;5.27;;;4.47;;
20627;SDS011;10473;42.734;24.258;2023-04-23T04:48:44;7.47;;;4.47;;
20627;SDS011;10473;42.734;24.258;2023-04-23T04:51:12;5.93;;;2.80;;
20627;SDS011;10473;42.734;24.258;2023-04-23T04:53:40;4.90;;;3.30;;
20627;SDS011;10473;42.734;24.258;2023-04-23T04:56:08;5.40;;;3.13;;
20627;SDS011;10473;42.734;24.258;2023-04-23T04:58:35;4.93;;;2.70;;
20627;SDS011;10473;42.734;24.258;2023-04-23T05:01:03;4.33;;;3.20;;
20627;SDS011;10473;42.734;24.258;2023-04-23T05:03:32;4.73;;;2.97;;
20627;SDS011;10473;42.734;24.258;2023-04-23T05:06:01;3.90;;;3.10;;
20627;SDS011;10473;42.734;24.258;2023-04-23T05:08:29;3.37;;;2.57;;
20627;SDS011;10473;42.734;24.258;2023-04-23T05:10:57;5.73;;;3.20;;
20627;SDS011;10473;42.734;24.258;2023-04-23T05:13:26;4.77;;;2.63;;
20627;SDS011;10473;42.734;24.258;2023-04-23T05:15:54;5.63;;;3.10;;
20627;SDS011;10473;42.734;24.258;2023-04-23T05:18:22;4.23;;;2.40;;
20627;SDS011;10473;42.734;24.258;2023-04-23T05:20:51;2.53;;;2.30;;
20627;SDS011;10473;42.734;24.258;2023-04-23T05:23:19;3.27;;;2.20;;
20627;SDS011;10473;42.734;24.258;2023-04-23T05:25:47;2.07;;;1.83;;
20627;SDS011;10473;42.734;24.258;2023-04-23T05:28:17;3.77;;;2.60;;
20627;SDS011;10473;42.734;24.258;2023-04-23T05:30:45;2.93;;;2.10;;
20627;SDS011;10473;42.734;24.258;2023-04-23T05:33:13;2.43;;;1.70;;
20627;SDS011;10473;42.734;24.258;2023-04-23T05:35:41;2.80;;;2.27;;
20627;SDS011;10473;42.734;24.258;2023-04-23T05:38:10;2.70;;;2.37;;
20627;SDS011;10473;42.734;24.258;2023-04-23T05:40:38;3.17;;;2.07;;
20627;SDS011;10473;42.734;24.258;2023-04-23T05:43:05;2.13;;;1.90;;
20627;SDS011;10473;42.734;24.258;2023-04-23T05:45:33;3.87;;;2.37;;
20627;SDS011;10473;42.734;24.258;2023-04-23T05:48:01;3.87;;;3.00;;
20627;SDS011;10473;42.734;24.258;2023-04-23T05:50:29;3.30;;;3.00;;
20627;SDS011;10473;42.734;24.258;2023-04-23T05:52:59;3.17;;;2.10;;
20627;SDS011;10473;42.734;24.258;2023-04-23T05:55:28;3.00;;;2.47;;
20627;SDS011;10473;42.734;24.258;2023-04-23T05:57:56;2.40;;;2.10;;
20627;SDS011;10473;42.734;24.258;2023-04-23T06:00:24;2.13;;;1.93;;
20627;SDS011;10473;42.734;24.258;2023-04-23T06:02:52;2.20;;;1.70;;
20627;SDS011;10473;42.734;24.258;2023-04-23T06:05:19;2.33;;;1.97;;
20627;SDS011;10473;42.734;24.258;2023-04-23T06:07:47;3.10;;;1.90;;
20627;SDS011;10473;42.734;24.258;2023-04-23T06:10:15;3.33;;;2.20;;
20627;SDS011;10473;42.734;24.258;2023-04-23T06:12:44;3.60;;;2.70;;
20627;SDS011;10473;42.734;24.258;2023-04-23T06:15:11;2.23;;;1.50;;
20627;SDS011;10473;42.734;24.258;2023-04-23T06:17:39;2.43;;;2.00;;
20627;SDS011;10473;42.734;24.258;2023-04-23T06:20:07;2.50;;;1.63;;
20627;SDS011;10473;42.734;24.258;2023-04-23T06:22:36;1.60;;;1.50;;
20627;SDS011;10473;42.734;24.258;2023-04-23T06:25:04;1.70;;;1.60;;
20627;SDS011;10473;42.734;24.258;2023-04-23T06:27:33;2.00;;;1.53;;
20627;SDS011;10473;42.734;24.258;2023-04-23T06:30:08;2.63;;;2.07;;
20627;SDS011;10473;42.734;24.258;2023-04-23T06:32:37;1.80;;;1.63;;
20627;SDS011;10473;42.734;24.258;2023-04-23T06:35:05;3.57;;;1.80;;
20627;SDS011;10473;42.734;24.258;2023-04-23T06:37:33;2.37;;;1.73;;
20627;SDS011;10473;42.734;24.258;2023-04-23T06:40:01;4.67;;;1.87;;
20627;SDS011;10473;42.734;24.258;2023-04-23T06:42:28;2.63;;;2.10;;
20627;SDS011;10473;42.734;24.258;2023-04-23T06:45:17;1.50;;;1.37;;
20627;SDS011;10473;42.734;24.258;2023-04-23T06:47:47;4.47;;;1.70;;
20627;SDS011;10473;42.734;24.258;2023-04-23T06:50:15;2.20;;;2.00;;
20627;SDS011;10473;42.734;24.258;2023-04-23T06:52:46;2.23;;;1.87;;
20627;SDS011;10473;42.734;24.258;2023-04-23T06:55:26;4.57;;;2.37;;
20627;SDS011;10473;42.734;24.258;2023-04-23T06:57:56;3.33;;;1.80;;
20627;SDS011;10473;42.734;24.258;2023-04-23T07:00:25;2.87;;;2.00;;
20627;SDS011;10473;42.734;24.258;2023-04-23T07:02:53;2.10;;;1.90;;
20627;SDS011;10473;42.734;24.258;2023-04-23T07:05:21;2.50;;;2.00;;
20627;SDS011;10473;42.734;24.258;2023-04-23T07:07:49;2.03;;;1.60;;
20627;SDS011;10473;42.734;24.258;2023-04-23T07:10:17;4.67;;;2.03;;
20627;SDS011;10473;42.734;24.258;2023-04-23T07:12:44;2.57;;;2.00;;
20627;SDS011;10473;42.734;24.258;2023-04-23T07:15:12;4.53;;;2.53;;
20627;SDS011;10473;42.734;24.258;2023-04-23T07:17:41;3.10;;;2.10;;
20627;SDS011;10473;42.734;24.258;2023-04-23T07:20:09;2.13;;;1.93;;
20627;SDS011;10473;42.734;24.258;2023-04-23T07:22:37;2.77;;;2.37;;
20627;SDS011;10473;42.734;24.258;2023-04-23T07:25:05;2.23;;;1.87;;
20627;SDS011;10473;42.734;24.258;2023-04-23T07:27:34;2.37;;;2.17;;
20627;SDS011;10473;42.734;24.258;2023-04-23T07:30:02;2.50;;;2.17;;
20627;SDS011;10473;42.734;24.258;2023-04-23T07:32:30;2.17;;;1.77;;
20627;SDS011;10473;42.734;24.258;2023-04-23T07:34:59;2.20;;;1.80;;
20627;SDS011;10473;42.734;24.258;2023-04-23T07:37:27;2.80;;;2.43;;
20627;SDS011;10473;42.734;24.258;2023-04-23T07:39:55;4.23;;;1.80;;
20627;SDS011;10473;42.734;24.258;2023-04-23T07:42:22;1.97;;;1.63;;
20627;SDS011;10473;42.734;24.258;2023-04-23T07:44:50;1.83;;;1.47;;
20627;SDS011;10473;42.734;24.258;2023-04-23T07:47:18;2.50;;;1.83;;
20627;SDS011;10473;42.734;24.258;2023-04-23T07:49:46;1.77;;;1.67;;
20627;SDS011;10473;42.734;24.258;2023-04-23T07:52:17;2.17;;;1.73;;
20627;SDS011;10473;42.734;24.258;2023-04-23T07:54:44;3.17;;;1.80;;
20627;SDS011;10473;42.734;24.258;2023-04-23T07:57:12;2.13;;;1.70;;
20627;SDS011;10473;42.734;24.258;2023-04-23T07:59:41;1.63;;;1.50;;
20627;SDS011;10473;42.734;24.258;2023-04-23T08:02:08;3.03;;;2.00;;
20627;SDS011;10473;42.734;24.258;2023-04-23T08:04:37;1.90;;;1.70;;
20627;SDS011;10473;42.734;24.258;2023-04-23T08:07:05;2.23;;;1.80;;
20627;SDS011;10473;42.734;24.258;2023-04-23T08:09:34;3.60;;;1.80;;
20627;SDS011;10473;42.734;24.258;2023-04-23T08:12:02;2.30;;;1.63;;
20627;SDS011;10473;42.734;24.258;2023-04-23T08:14:30;2.50;;;2.10;;
20627;SDS011;10473;42.734;24.258;2023-04-23T08:17:00;2.20;;;2.00;;
20627;SDS011;10473;42.734;24.258;2023-04-23T08:19:27;2.17;;;1.77;;
20627;SDS011;10473;42.734;24.258;2023-04-23T08:21:58;2.23;;;2.00;;
20627;SDS011;10473;42.734;24.258;2023-04-23T08:24:26;3.00;;;1.97;;
20627;SDS011;10473;42.734;24.258;2023-04-23T08:26:55;2.23;;;1.83;;
20627;SDS011;10473;42.734;24.258;2023-04-23T08:29:22;2.83;;;1.97;;
20627;SDS011;10473;42.734;24.258;2023-04-23T08:31:50;2.03;;;1.83;;
20627;SDS011;10473;42.734;24.258;2023-04-23T08:34:18;1.87;;;1.37;;
20627;SDS011;10473;42.734;24.258;2023-04-23T08:36:46;1.97;;;1.70;;
20627;SDS011;10473;42.734;24.258;2023-04-23T08:39:14;2.73;;;2.07;;
20627;SDS011;10473;42.734;24.258;2023-04-23T08:41:43;3.10;;;2.00;;
20627;SDS011;10473;42.734;24.258;2023-04-23T08:44:17;1.77;;;1.43;;
20627;SDS011;10473;42.734;24.258;2023-04-23T08:46:46;4.80;;;1.83;;
20627;SDS011;10473;42.734;24.258;2023-04-23T08:49:15;1.77;;;1.50;;
20627;SDS011;10473;42.734;24.258;2023-04-23T08:51:45;2.40;;;1.60;;
20627;SDS011;10473;42.734;24.258;2023-04-23T08:54:18;1.50;;;1.27;;
20627;SDS011;10473;42.734;24.258;2023-04-23T08:56:50;1.70;;;1.60;;
20627;SDS011;10473;42.734;24.258;2023-04-23T08:59:20;1.70;;;1.27;;
20627;SDS011;10473;42.734;24.258;2023-04-23T09:01:48;2.90;;;1.67;;
20627;SDS011;10473;42.734;24.258;2023-04-23T09:04:16;1.70;;;1.60;;
20627;SDS011;10473;42.734;24.258;2023-04-23T09:06:45;1.83;;;1.50;;
20627;SDS011;10473;42.734;24.258;2023-04-23T09:09:13;2.07;;;1.67;;
20627;SDS011;10473;42.734;24.258;2023-04-23T09:11:42;1.70;;;1.60;;
20627;SDS011;10473;42.734;24.258;2023-04-23T09:14:11;1.53;;;1.43;;
20627;SDS011;10473;42.734;24.258;2023-04-23T09:16:40;2.07;;;1.63;;
20627;SDS011;10473;42.734;24.258;2023-04-23T09:19:09;3.57;;;1.70;;
20627;SDS011;10473;42.734;24.258;2023-04-23T09:21:38;1.97;;;1.43;;
20627;SDS011;10473;42.734;24.258;2023-04-23T09:24:08;1.80;;;1.47;;
20627;SDS011;10473;42.734;24.258;2023-04-23T09:26:43;2.10;;;1.73;;
20627;SDS011;10473;42.734;24.258;2023-04-23T09:29:12;1.60;;;1.50;;
20627;SDS011;10473;42.734;24.258;2023-04-23T09:31:44;1.73;;;1.63;;
20627;SDS011;10473;42.734;24.258;2023-04-23T09:34:15;4.00;;;1.87;;
20627;SDS011;10473;42.734;24.258;2023-04-23T09:36:44;1.97;;;1.67;;
20627;SDS011;10473;42.734;24.258;2023-04-23T09:39:12;1.67;;;1.50;;
20627;SDS011;10473;42.734;24.258;2023-04-23T09:41:41;3.13;;;1.83;;
20627;SDS011;10473;42.734;24.258;2023-04-23T09:44:10;2.07;;;1.60;;
20627;SDS011;10473;42.734;24.258;2023-04-23T09:46:39;3.37;;;2.33;;
20627;SDS011;10473;42.734;24.258;2023-04-23T09:49:10;2.87;;;1.87;;
20627;SDS011;10473;42.734;24.258;2023-04-23T09:51:38;3.43;;;2.70;;
20627;SDS011;10473;42.734;24.258;2023-04-23T09:54:10;2.03;;;1.57;;
20627;SDS011;10473;42.734;24.258;2023-04-23T09:56:39;1.37;;;1.27;;
20627;SDS011;10473;42.734;24.258;2023-04-23T09:59:18;1.80;;;1.57;;
20627;SDS011;10473;42.734;24.258;2023-04-23T10:01:46;1.83;;;1.30;;
20627;SDS011;10473;42.734;24.258;2023-04-23T10:04:17;2.73;;;2.20;;
20627;SDS011;10473;42.734;24.258;2023-04-23T10:06:47;2.33;;;1.70;;
20627;SDS011;10473;42.734;24.258;2023-04-23T10:09:15;2.10;;;1.90;;
20627;SDS011;10473;42.734;24.258;2023-04-23T10:11:48;2.30;;;1.63;;
20627;SDS011;10473;42.734;24.258;2023-04-23T10:14:17;1.73;;;1.27;;
20627;SDS011;10473;42.734;24.258;2023-04-23T10:16:46;2.83;;;1.37;;
20627;SDS011;10473;42.734;24.258;2023-04-23T10:19:18;1.90;;;1.40;;
20627;SDS011;10473;42.734;24.258;2023-04-23T10:21:49;2.10;;;1.90;;
20627;SDS011;10473;42.734;24.258;2023-04-23T10:24:20;2.37;;;1.97;;
20627;SDS011;10473;42.734;24.258;2023-04-23T10:26:50;3.27;;;2.30;;
20627;SDS011;10473;42.734;24.258;2023-04-23T10:29:20;2.63;;;1.83;;
20627;SDS011;10473;42.734;24.258;2023-04-23T10:31:53;5.23;;;1.90;;
20627;SDS011;10473;42.734;24.258;2023-04-23T10:34:24;2.43;;;1.40;;
20627;SDS011;10473;42.734;24.258;2023-04-23T10:36:55;2.17;;;1.60;;
20627;SDS011;10473;42.734;24.258;2023-04-23T10:39:24;1.63;;;1.43;;
20627;SDS011;10473;42.734;24.258;2023-04-23T10:41:54;1.90;;;1.30;;
20627;SDS011;10473;42.734;24.258;2023-04-23T10:44:30;4.33;;;1.97;;
20627;SDS011;10473;42.734;24.258;2023-04-23T10:46:59;1.50;;;1.40;;
20627;SDS011;10473;42.734;24.258;2023-04-23T10:49:30;1.80;;;1.70;;
20627;SDS011;10473;42.734;24.258;2023-04-23T10:51:59;2.87;;;1.70;;
20627;SDS011;10473;42.734;24.258;2023-04-23T10:54:28;2.07;;;1.67;;
20627;SDS011;10473;42.734;24.258;2023-04-23T10:56:58;3.90;;;3.33;;
20627;SDS011;10473;42.734;24.258;2023-04-23T10:59:28;4.57;;;1.80;;
20627;SDS011;10473;42.734;24.258;2023-04-23T11:01:57;1.70;;;1.60;;
20627;SDS011;10473;42.734;24.258;2023-04-23T11:04:26;1.43;;;1.33;;
20627;SDS011;10473;42.734;24.258;2023-04-23T11:07:03;1.83;;;1.70;;
20627;SDS011;10473;42.734;24.258;2023-04-23T11:09:36;2.30;;;1.80;;
20627;SDS011;10473;42.734;24.258;2023-04-23T11:12:06;1.90;;;1.60;;
20627;SDS011;10473;42.734;24.258;2023-04-23T11:14:36;2.50;;;2.30;;
20627;SDS011;10473;42.734;24.258;2023-04-23T11:17:13;2.20;;;1.70;;
20627;SDS011;10473;42.734;24.258;2023-04-23T11:20:05;3.83;;;2.17;;
20627;SDS011;10473;42.734;24.258;2023-04-23T11:22:37;4.30;;;2.70;;
20627;SDS011;10473;42.734;24.258;2023-04-23T11:25:07;2.67;;;1.97;;
20627;SDS011;10473;42.734;24.258;2023-04-23T11:27:37;2.60;;;2.20;;
20627;SDS011;10473;42.734;24.258;2023-04-23T11:30:09;2.30;;;2.10;;
20627;SDS011;10473;42.734;24.258;2023-04-23T11:32:38;2.03;;;1.93;;
20627;SDS011;10473;42.734;24.258;2023-04-23T11:35:07;3.03;;;2.57;;
20627;SDS011;10473;42.734;24.258;2023-04-23T11:37:39;3.67;;;2.60;;
20627;SDS011;10473;42.734;24.258;2023-04-23T11:40:07;3.80;;;2.13;;
20627;SDS011;10473;42.734;24.258;2023-04-23T11:42:40;6.17;;;3.83;;
20627;SDS011;10473;42.734;24.258;2023-04-23T11:45:15;3.07;;;2.40;;
20627;SDS011;10473;42.734;24.258;2023-04-23T11:47:43;2.40;;;2.10;;
20627;SDS011;10473;42.734;24.258;2023-04-23T11:50:16;2.30;;;2.10;;
20627;SDS011;10473;42.734;24.258;2023-04-23T11:52:46;5.00;;;2.60;;
20627;SDS011;10473;42.734;24.258;2023-04-23T11:55:14;5.67;;;3.73;;
20627;SDS011;10473;42.734;24.258;2023-04-23T11:57:42;4.07;;;2.60;;
20627;SDS011;10473;42.734;24.258;2023-04-23T12:00:12;2.80;;;2.50;;
20627;SDS011;10473;42.734;24.258;2023-04-23T12:02:51;6.73;;;3.80;;
20627;SDS011;10473;42.734;24.258;2023-04-23T12:05:20;3.50;;;3.20;;
20627;SDS011;10473;42.734;24.258;2023-04-23T12:07:51;3.90;;;2.60;;
20627;SDS011;10473;42.734;24.258;2023-04-23T12:10:18;2.20;;;2.03;;
20627;SDS011;10473;42.734;24.258;2023-04-23T12:12:50;2.00;;;1.80;;
20627;SDS011;10473;42.734;24.258;2023-04-23T12:15:18;2.07;;;1.87;;
20627;SDS011;10473;42.734;24.258;2023-04-23T12:17:49;3.20;;;2.30;;
20627;SDS011;10473;42.734;24.258;2023-04-23T12:20:18;2.40;;;1.77;;
20627;SDS011;10473;42.734;24.258;2023-04-23T12:22:46;2.43;;;2.10;;
20627;SDS011;10473;42.734;24.258;2023-04-23T12:25:15;4.00;;;2.67;;
20627;SDS011;10473;42.734;24.258;2023-04-23T12:27:48;2.83;;;2.47;;
20627;SDS011;10473;42.734;24.258;2023-04-23T12:30:16;2.43;;;2.20;;
20627;SDS011;10473;42.734;24.258;2023-04-23T12:32:44;2.50;;;2.30;;
20627;SDS011;10473;42.734;24.258;2023-04-23T12:35:11;3.47;;;2.73;;
20627;SDS011;10473;42.734;24.258;2023-04-23T12:37:39;2.57;;;2.23;;
20627;SDS011;10473;42.734;24.258;2023-04-23T12:40:07;1.50;;;1.40;;
20627;SDS011;10473;42.734;24.258;2023-04-23T12:42:37;2.33;;;2.00;;
20627;SDS011;10473;42.734;24.258;2023-04-23T12:45:05;2.53;;;2.00;;
20627;SDS011;10473;42.734;24.258;2023-04-23T12:47:34;2.73;;;2.07;;
20627;SDS011;10473;42.734;24.258;2023-04-23T12:50:02;2.03;;;1.80;;
20627;SDS011;10473;42.734;24.258;2023-04-23T12:52:30;2.40;;;1.87;;
20627;SDS011;10473;42.734;24.258;2023-04-23T12:54:58;2.40;;;2.20;;
20627;SDS011;10473;42.734;24.258;2023-04-23T12:57:26;1.63;;;1.53;;
20627;SDS011;10473;42.734;24.258;2023-04-23T12:59:55;2.87;;;2.53;;
20627;SDS011;10473;42.734;24.258;2023-04-23T13:02:23;3.30;;;2.50;;
20627;SDS011;10473;42.734;24.258;2023-04-23T13:04:51;2.43;;;2.17;;
20627;SDS011;10473;42.734;24.258;2023-04-23T13:07:25;1.77;;;1.67;;
20627;SDS011;10473;42.734;24.258;2023-04-23T13:09:53;2.67;;;2.03;;
20627;SDS011;10473;42.734;24.258;2023-04-23T13:12:22;2.50;;;2.10;;
20627;SDS011;10473;42.734;24.258;2023-04-23T13:14:54;2.27;;;2.07;;
20627;SDS011;10473;42.734;24.258;2023-04-23T13:17:22;6.00;;;2.23;;
20627;SDS011;10473;42.734;24.258;2023-04-23T13:19:51;3.63;;;2.10;;
20627;SDS011;10473;42.734;24.258;2023-04-23T13:22:19;1.70;;;1.60;;
20627;SDS011;10473;42.734;24.258;2023-04-23T13:24:47;2.47;;;2.07;;
20627;SDS011;10473;42.734;24.258;2023-04-23T13:27:15;3.17;;;2.30;;
20627;SDS011;10473;42.734;24.258;2023-04-23T13:29:43;2.07;;;1.70;;
20627;SDS011;10473;42.734;24.258;2023-04-23T13:32:12;1.93;;;1.70;;
20627;SDS011;10473;42.734;24.258;2023-04-23T13:34:41;2.27;;;1.73;;
20627;SDS011;10473;42.734;24.258;2023-04-23T13:37:08;2.00;;;1.80;;
20627;SDS011;10473;42.734;24.258;2023-04-23T13:39:37;1.43;;;1.33;;
20627;SDS011;10473;42.734;24.258;2023-04-23T13:42:05;3.33;;;1.53;;
20627;SDS011;10473;42.734;24.258;2023-04-23T13:44:33;1.60;;;1.43;;
20627;SDS011;10473;42.734;24.258;2023-04-23T13:47:00;1.60;;;1.50;;
20627;SDS011;10473;42.734;24.258;2023-04-23T13:49:30;2.47;;;1.70;;
20627;SDS011;10473;42.734;24.258;2023-04-23T13:51:57;2.40;;;1.57;;
20627;SDS011;10473;42.734;24.258;2023-04-23T13:54:29;1.50;;;1.33;;
20627;SDS011;10473;42.734;24.258;2023-04-23T13:56:56;1.93;;;1.80;;
20627;SDS011;10473;42.734;24.258;2023-04-23T13:59:25;1.47;;;1.23;;
20627;SDS011;10473;42.734;24.258;2023-04-23T14:01:53;1.60;;;1.30;;
20627;SDS011;10473;42.734;24.258;2023-04-23T14:04:20;2.40;;;2.20;;
20627;SDS011;10473;42.734;24.258;2023-04-23T14:06:50;1.93;;;1.50;;
20627;SDS011;10473;42.734;24.258;2023-04-23T14:09:18;2.40;;;1.63;;
20627;SDS011;10473;42.734;24.258;2023-04-23T14:11:47;3.77;;;2.13;;
20627;SDS011;10473;42.734;24.258;2023-04-23T14:14:14;2.10;;;1.90;;
20627;SDS011;10473;42.734;24.258;2023-04-23T14:16:42;1.43;;;1.33;;
20627;SDS011;10473;42.734;24.258;2023-04-23T14:19:10;1.70;;;1.50;;
20627;SDS011;10473;42.734;24.258;2023-04-23T14:21:38;3.10;;;2.27;;
20627;SDS011;10473;42.734;24.258;2023-04-23T14:24:08;1.77;;;1.60;;
20627;SDS011;10473;42.734;24.258;2023-04-23T14:26:43;2.10;;;1.80;;
20627;SDS011;10473;42.734;24.258;2023-04-23T14:29:17;1.67;;;1.50;;
20627;SDS011;10473;42.734;24.258;2023-04-23T14:31:45;1.53;;;1.40;;
20627;SDS011;10473;42.734;24.258;2023-04-23T14:34:13;1.40;;;1.30;;
20627;SDS011;10473;42.734;24.258;2023-04-23T14:36:41;2.43;;;2.03;;
20627;SDS011;10473;42.734;24.258;2023-04-23T14:39:10;1.87;;;1.77;;
20627;SDS011;10473;42.734;24.258;2023-04-23T14:41:38;1.83;;;1.50;;
20627;SDS011;10473;42.734;24.258;2023-04-23T14:44:06;1.87;;;1.77;;